Time;durP1;ratioP1;P1;durP2;ratioP2;P2;SDS_P1;SDS_P2;PMS_P1;PMS_P2;Temp;Humidity;BMP_temperature;BMP_pressure;BME280_temperature;BME280_humidity;BME280_pressure;Samples;Min_cycle;Max_cycle;Signal;HPM_P1;HPM_P2
2021/12/25 00:00:04;;;;;;;6.87;5.43;;;;;;;8.03;100.00;153421.00;5034397;28;20447;-77
2021/12/25 00:02:40;;;;;;;7.07;5.60;;;;;;;8.01;100.00;153417.16;5034502;28;20427;-77
2021/12/25 00:05:18;;;;;;;6.93;6.23;;;;;;;8.02;100.00;153419.75;5033528;28;20447;-77
2021/12/25 00:07:53;;;;;;;7.80;6.80;;;;;;;8.03;100.00;153422.31;5065762;28;20463;-77
2021/12/25 00:10:30;;;;;;;7.63;6.00;;;;;;;8.02;100.00;153419.75;5033065;28;20926;-77
2021/12/25 00:13:05;;;;;;;7.70;6.20;;;;;;;8.02;100.00;153419.75;5066900;28;20428;-77
2021/12/25 00:15:42;;;;;;;7.37;6.67;;;;;;;8.02;100.00;153418.44;5017401;28;20440;-77
2021/12/25 00:18:17;;;;;;;6.73;6.13;;;;;;;8.01;100.00;153415.84;5034013;28;20529;-77
2021/12/25 00:20:54;;;;;;;9.83;5.60;;;;;;;8.02;100.00;153418.44;5052108;28;20997;-77
2021/12/25 00:23:30;;;;;;;6.63;5.93;;;;;;;8.03;100.00;153422.31;5033864;28;20844;-77
2021/12/25 00:26:10;;;;;;;5.90;5.30;;;;;;;8.03;100.00;153422.31;5032766;28;20447;-77
2021/12/25 00:28:57;;;;;;;6.00;5.40;;;;;;;8.05;100.00;153427.47;5020792;28;20472;-77
2021/12/25 00:31:48;;;;;;;5.33;4.63;;;;;;;8.04;100.00;153424.91;5048307;28;20452;-77
2021/12/25 00:34:24;;;;;;;6.40;5.17;;;;;;;8.04;100.00;153424.91;5033719;28;20474;-77
2021/12/25 00:37:01;;;;;;;6.20;5.47;;;;;;;8.04;100.00;153423.63;5017519;28;20444;-77
2021/12/25 00:39:37;;;;;;;5.93;5.30;;;;;;;8.04;100.00;153424.91;5018582;28;20435;-77
2021/12/25 00:42:13;;;;;;;6.07;5.07;;;;;;;8.04;100.00;153423.63;5018274;28;20451;-77
2021/12/25 00:44:49;;;;;;;7.00;5.50;;;;;;;8.03;100.00;153422.31;5018243;28;20436;-77
2021/12/25 00:47:24;;;;;;;6.50;5.80;;;;;;;8.03;100.00;153422.31;5032452;28;20440;-77
2021/12/25 00:50:00;;;;;;;7.20;5.37;;;;;;;8.04;100.00;153424.91;5015949;28;20471;-77
2021/12/25 00:52:37;;;;;;;6.50;5.43;;;;;;;8.04;100.00;153424.91;5066659;28;20451;-77
2021/12/25 00:55:13;;;;;;;6.30;5.60;;;;;;;8.05;100.00;153426.22;5066138;28;20451;-77
2021/12/25 00:57:48;;;;;;;5.83;5.23;;;;;;;8.05;100.00;153426.22;5017596;28;20550;-77
2021/12/25 01:00:24;;;;;;;5.63;5.00;;;;;;;8.04;100.00;153424.91;5017935;28;20447;-77
2021/12/25 01:03:01;;;;;;;6.27;5.53;;;;;;;8.03;100.00;153422.31;5018234;28;20439;-77
2021/12/25 01:05:36;;;;;;;7.73;4.87;;;;;;;8.03;100.00;153422.31;5047170;28;20444;-77
2021/12/25 01:08:13;;;;;;;5.30;4.80;;;;;;;8.03;100.00;153422.31;5050556;28;20503;-77
2021/12/25 01:10:49;;;;;;;6.40;4.90;;;;;;;8.03;100.00;153422.31;5016291;28;20451;-77
2021/12/25 01:13:29;;;;;;;6.47;5.63;;;;;;;8.03;100.00;153422.31;5017430;28;20536;-77
2021/12/25 01:16:20;;;;;;;6.30;5.37;;;;;;;8.02;100.00;153419.75;4997866;28;20503;-77
2021/12/25 01:22:24;;;;;;;5.90;5.00;;;;;;;8.02;100.00;153418.44;4937486;29;20542;-77
2021/12/25 01:25:26;;;;;;;7.00;6.27;;;;;;;8.01;100.00;153417.16;4936730;29;20546;-77
2021/12/25 01:31:04;;;;;;;9.27;5.80;;;;;;;8.01;100.00;153417.16;4985787;28;20451;-77
2021/12/25 01:34:12;;;;;;;6.83;5.70;;;;;;;8.00;100.00;153414.53;5065231;28;20527;-77
2021/12/25 01:37:34;;;;;;;7.23;5.27;;;;;;;7.99;100.00;153413.25;4994467;28;20432;-77
2021/12/25 01:40:49;;;;;;;5.73;4.60;;;;;;;7.99;100.00;153413.25;5065949;28;20459;-77
2021/12/25 01:49:43;;;;;;;7.50;6.17;;;;;;;8.02;100.00;153418.44;5016892;28;20924;-78
2021/12/25 01:52:25;;;;;;;7.53;6.13;;;;;;;8.01;100.00;153415.84;5016905;28;20443;-77
2021/12/25 01:55:03;;;;;;;7.07;5.60;;;;;;;8.01;100.00;153417.16;5016208;28;20479;-77
2021/12/25 01:57:41;;;;;;;7.47;5.83;;;;;;;7.99;100.00;153412.00;5016670;28;20978;-77
2021/12/25 02:00:20;;;;;;;7.13;6.30;;;;;;;7.99;100.00;153412.00;5016889;28;20476;-77
2021/12/25 02:02:56;;;;;;;7.40;5.63;;;;;;;7.98;100.00;153409.41;5032010;28;20447;-77
2021/12/25 02:05:32;;;;;;;6.13;5.53;;;;;;;7.95;100.00;153402.94;5064251;28;20953;-77
2021/12/25 02:08:08;;;;;;;7.27;6.13;;;;;;;7.96;100.00;153404.22;5016761;28;20447;-77
2021/12/25 02:10:44;;;;;;;6.57;5.80;;;;;;;7.94;100.00;153399.09;5048826;28;20451;-77
2021/12/25 02:13:21;;;;;;;6.57;5.93;;;;;;;7.90;100.00;153390.03;5016345;28;20495;-77
2021/12/25 02:15:59;;;;;;;7.00;6.30;;;;;;;7.88;100.00;153383.56;5016013;28;20420;-77
2021/12/25 02:18:55;;;;;;;6.90;6.07;;;;;;;7.87;100.00;153380.97;5016678;28;20463;-77
2021/12/25 02:21:42;;;;;;;6.77;6.03;;;;;;;7.86;100.00;153378.41;5016379;28;20436;-77
2021/12/25 02:24:17;;;;;;;6.57;5.90;;;;;;;7.85;100.00;153377.09;5014073;28;20483;-77
2021/12/25 02:26:53;;;;;;;6.33;5.63;;;;;;;7.89;100.00;153387.41;5015846;28;20466;-77
2021/12/25 02:29:32;;;;;;;6.50;5.60;;;;;;;7.87;100.00;153380.97;5016472;28;20476;-77
2021/12/25 02:32:09;;;;;;;7.47;6.70;;;;;;;7.88;100.00;153383.56;5049461;28;20443;-77
2021/12/25 02:34:49;;;;;;;8.33;6.30;;;;;;;7.86;100.00;153379.66;5047414;28;20550;-77
2021/12/25 02:37:26;;;;;;;6.00;5.40;;;;;;;7.85;100.00;153375.81;5014618;28;20473;-77
2021/12/25 02:40:02;;;;;;;7.80;6.43;;;;;;;7.85;100.00;153375.81;5031498;28;20766;-77
2021/12/25 02:42:38;;;;;;;6.57;5.97;;;;;;;7.83;100.00;153371.94;5049226;28;20447;-77
2021/12/25 02:45:18;;;;;;;8.67;7.13;;;;;;;7.87;100.00;153382.25;5015384;28;20452;-78
2021/12/25 02:47:56;;;;;;;7.53;6.40;;;;;;;7.84;100.00;153374.50;5030698;28;20439;-77
2021/12/25 02:50:33;;;;;;;9.10;6.57;;;;;;;7.84;100.00;153374.50;5049430;28;20475;-77
2021/12/25 02:53:11;;;;;;;8.57;6.67;;;;;;;7.84;100.00;153373.19;5064829;28;20810;-77
2021/12/25 02:55:48;;;;;;;6.90;5.93;;;;;;;7.84;100.00;153374.50;5048487;28;20444;-77
2021/12/25 02:58:27;;;;;;;7.60;6.80;;;;;;;7.85;100.00;153375.81;5015789;28;20447;-77
2021/12/25 03:01:06;;;;;;;6.90;6.00;;;;;;;7.88;100.00;153384.88;5031337;28;20498;-77
2021/12/25 03:03:43;;;;;;;6.20;5.50;;;;;;;7.86;100.00;153378.41;5015958;28;20440;-77
2021/12/25 03:06:19;;;;;;;7.17;5.13;;;;;;;7.86;100.00;153379.66;5045894;28;20436;-77
2021/12/25 03:08:56;;;;;;;6.37;5.27;;;;;;;7.86;100.00;153378.41;5028789;28;20559;-77
2021/12/25 03:11:32;;;;;;;6.37;5.70;;;;;;;7.85;100.00;153375.81;5028388;28;20451;-77
2021/12/25 03:14:24;;;;;;;6.20;5.57;;;;;;;7.87;100.00;153380.97;5025639;28;20452;-77
2021/12/25 03:17:00;;;;;;;6.90;5.00;;;;;;;7.85;100.00;153375.81;5030254;28;20451;-77
2021/12/25 03:19:36;;;;;;;5.50;4.37;;;;;;;7.86;100.00;153379.66;5016329;28;20447;-77
2021/12/25 03:22:12;;;;;;;6.50;4.73;;;;;;;7.85;100.00;153375.81;5049405;28;20443;-77
2021/12/25 03:24:49;;;;;;;7.80;4.37;;;;;;;7.83;100.00;153371.94;5031898;28;20447;-77
2021/12/25 03:27:26;;;;;;;5.20;4.47;;;;;;;7.85;100.00;153375.81;5015471;28;20431;-77
2021/12/25 03:30:01;;;;;;;6.13;4.77;;;;;;;7.83;100.00;153371.94;5064340;28;20501;-77
2021/12/25 03:32:37;;;;;;;5.07;4.27;;;;;;;7.85;100.00;153375.81;5015516;28;20479;-77
2021/12/25 03:35:13;;;;;;;6.97;5.47;;;;;;;7.85;100.00;153377.09;5015343;28;20459;-77
2021/12/25 03:37:48;;;;;;;4.30;3.80;;;;;;;7.88;100.00;153383.56;5015448;28;20447;-76
2021/12/25 03:40:27;;;;;;;6.67;5.37;;;;;;;7.87;100.00;153380.97;5015014;28;20513;-77
2021/12/25 03:43:03;;;;;;;4.90;3.87;;;;;;;7.86;100.00;153379.66;5041748;28;20438;-77
2021/12/25 03:45:39;;;;;;;6.43;4.50;;;;;;;7.88;100.00;153383.56;5014745;28;20546;-77
2021/12/25 03:48:28;;;;;;;5.37;4.03;;;;;;;7.88;100.00;153383.56;5047583;28;20445;-77
2021/12/25 03:59:47;;;;;;;5.37;4.20;;;;;;;7.87;100.00;153380.97;5050033;28;20926;-77
2021/12/25 04:02:31;;;;;;;5.40;4.67;;;;;;;7.87;100.00;153382.25;5052223;28;20535;-77
2021/12/25 04:05:14;;;;;;;4.90;3.77;;;;;;;7.90;100.00;153388.72;5051620;28;20443;-77
2021/12/25 04:08:07;;;;;;;3.53;3.03;;;;;;;7.88;100.00;153383.56;5018842;28;20448;-77
2021/12/25 04:10:45;;;;;;;3.93;3.53;;;;;;;7.86;100.00;153378.41;5028643;28;20840;-77
2021/12/25 04:13:22;;;;;;;5.53;3.87;;;;;;;7.85;100.00;153377.09;5033025;28;20459;-77
2021/12/25 04:15:57;;;;;;;3.30;2.73;;;;;;;7.88;100.00;153383.56;5032976;28;20877;-77
2021/12/25 04:18:33;;;;;;;4.13;3.00;;;;;;;7.86;100.00;153378.41;5012256;28;20440;-77
2021/12/25 04:21:08;;;;;;;4.00;3.13;;;;;;;7.85;100.00;153375.81;5019037;28;20855;-80
2021/12/25 04:23:44;;;;;;;3.70;2.80;;;;;;;7.84;100.00;153373.19;5018250;28;20436;-81
2021/12/25 04:26:22;;;;;;;3.23;2.80;;;;;;;7.88;100.00;153383.56;5051998;28;20440;-81
2021/12/25 04:29:06;;;;;;;3.53;2.77;;;;;;;7.85;100.00;153375.81;5052026;28;20448;-81
2021/12/25 04:32:06;;;;;;;3.30;2.87;;;;;;;7.84;100.00;153374.50;5018677;28;20523;-81
2021/12/25 05:04:14;;;;;;;2.70;2.33;;;;;;;7.82;100.00;153368.03;5033237;28;20844;-81
2021/12/25 05:07:10;;;;;;;3.70;2.97;;;;;;;7.78;100.00;153357.72;5051205;28;20439;-81
2021/12/25 05:09:46;;;;;;;3.40;3.00;;;;;;;7.79;100.00;153360.28;5016270;28;20468;-81
2021/12/25 05:12:22;;;;;;;3.37;2.43;;;;;;;7.78;100.00;153357.72;5018310;28;20435;-81
2021/12/25 05:14:59;;;;;;;3.60;2.73;;;;;;;7.77;100.00;153355.13;5017302;28;20513;-81
2021/12/25 05:17:34;;;;;;;3.70;3.03;;;;;;;7.76;100.00;153353.84;5032719;28;20782;-81
2021/12/25 05:20:12;;;;;;;6.20;2.97;;;;;;;7.73;100.00;153346.06;5033252;28;20435;-81
2021/12/25 05:22:48;;;;;;;4.00;3.30;;;;;;;7.73;100.00;153344.81;5050869;28;20559;-80
2021/12/25 05:25:24;;;;;;;6.20;3.90;;;;;;;7.74;100.00;153347.38;5017722;28;20444;-81
2021/12/25 05:28:05;;;;;;;5.50;4.07;;;;;;;7.72;100.00;153342.22;5016895;28;20436;-81
2021/12/25 05:30:41;;;;;;;5.20;4.13;;;;;;;7.73;100.00;153344.81;5017462;28;20811;-81
2021/12/25 05:33:36;;;;;;;5.37;3.90;;;;;;;7.70;100.00;153338.38;5066109;28;20673;-81
2021/12/25 05:36:36;;;;;;;4.70;3.63;;;;;;;7.70;100.00;153337.06;5050222;28;20444;-81
2021/12/25 05:39:31;;;;;;;4.60;3.77;;;;;;;7.69;100.00;153335.75;5032956;28;20845;-81
2021/12/25 05:42:08;;;;;;;5.10;4.30;;;;;;;7.68;100.00;153331.84;5050147;28;20440;-81
2021/12/25 05:44:44;;;;;;;5.17;3.33;;;;;;;7.68;100.00;153331.84;5016773;28;20482;-82
2021/12/25 05:47:42;;;;;;;6.23;5.13;;;;;;;7.69;100.00;153334.47;5017203;28;20923;-81
2021/12/25 05:50:51;;;;;;;5.33;4.37;;;;;;;7.68;100.00;153331.84;5017495;28;20468;-81
2021/12/25 05:53:36;;;;;;;6.13;4.87;;;;;;;7.69;100.00;153334.47;5016785;28;20768;-81
2021/12/25 05:56:37;;;;;;;6.20;5.20;;;;;;;7.64;100.00;153321.56;5006643;28;20483;-81
2021/12/25 05:59:45;;;;;;;6.70;5.43;;;;;;;7.64;100.00;153322.84;5036287;28;20539;-81
2021/12/25 06:02:42;;;;;;;;;;;;;;;;;;;;;
2021/12/25 06:05:31;;;;;;;7.20;5.60;;;;;;;7.59;100.00;153309.94;5050021;28;20440;-81
2021/12/25 06:08:06;;;;;;;6.70;5.57;;;;;;;7.56;100.00;153300.88;5032880;28;20455;-81
2021/12/25 06:10:44;;;;;;;7.70;5.77;;;;;;;7.54;100.00;153297.03;5021829;28;20471;-81
2021/12/25 06:13:21;;;;;;;7.87;6.50;;;;;;;7.58;100.00;153306.03;5016063;28;20531;-81
2021/12/25 06:15:59;;;;;;;8.17;6.30;;;;;;;7.60;100.00;153312.50;5047530;28;20432;-81
2021/12/25 06:19:04;;;;;;;7.27;6.07;;;;;;;7.58;100.00;153306.03;5048018;28;20534;-81
2021/12/25 06:21:46;;;;;;;8.40;6.83;;;;;;;7.56;100.00;153300.88;5016627;28;20436;-81
2021/12/25 06:24:36;;;;;;;7.37;6.60;;;;;;;7.56;100.00;153300.88;5049446;28;20467;-81
2021/12/25 06:27:46;;;;;;;7.33;6.63;;;;;;;7.57;100.00;153304.72;5015994;28;20447;-81
2021/12/25 06:30:43;;;;;;;7.47;6.57;;;;;;;7.54;100.00;153297.03;5064587;28;20861;-81
2021/12/25 06:33:51;;;;;;;7.17;5.87;;;;;;;7.54;100.00;153295.72;5011948;28;20455;-81
2021/12/25 06:36:37;;;;;;;8.73;6.20;;;;;;;7.58;100.00;153307.34;5013378;28;20452;-81
2021/12/25 06:39:34;;;;;;;9.10;7.07;;;;;;;7.60;100.00;153311.25;5014872;28;20495;-81
2021/12/25 06:42:16;;;;;;;8.27;7.03;;;;;;;7.62;100.00;153316.41;5064365;28;20455;-81
2021/12/25 06:44:55;;;;;;;7.60;6.67;;;;;;;7.66;100.00;153326.72;5015350;28;20448;-81
2021/12/25 06:47:31;;;;;;;8.20;7.10;;;;;;;7.64;100.00;153322.84;5016067;28;20860;-81
2021/12/25 06:50:11;;;;;;;11.93;8.07;;;;;;;7.63;100.00;153318.94;5016096;28;20480;-81
2021/12/25 06:53:19;;;;;;;8.87;7.90;;;;;;;7.61;100.00;153315.09;4983377;28;20769;-81
2021/12/25 06:56:16;;;;;;;9.53;8.27;;;;;;;7.60;100.00;153311.25;5014695;28;21025;-81
2021/12/25 06:59:03;;;;;;;10.23;8.90;;;;;;;7.63;100.00;153318.94;5015706;28;20852;-81
2021/12/25 07:01:43;;;;;;;8.63;7.13;;;;;;;7.64;100.00;153321.56;5048939;28;20839;-81
2021/12/25 07:04:36;;;;;;;11.07;8.03;;;;;;;7.64;100.00;153322.84;5046297;28;20547;-81
2021/12/25 07:07:31;;;;;;;8.77;7.70;;;;;;;7.61;100.00;153313.78;5064850;28;20440;-81
2021/12/25 07:10:25;;;;;;;11.53;9.50;;;;;;;7.58;100.00;153306.03;5012639;28;20467;-81
2021/12/25 07:13:16;;;;;;;8.90;7.80;;;;;;;7.60;100.00;153311.25;5015434;28;20517;-81
2021/12/25 07:16:10;;;;;;;10.50;8.93;;;;;;;7.63;100.00;153318.94;5053579;28;20444;-81
2021/12/25 07:19:06;;;;;;;10.17;7.40;;;;;;;7.62;100.00;153317.69;5063972;28;20448;-81
2021/12/25 07:22:10;;;;;;;8.70;7.50;;;;;;;7.60;100.00;153311.25;5048466;28;20910;-81
2021/12/25 07:24:45;;;;;;;9.83;7.70;;;;;;;7.63;100.00;153318.94;5034699;28;20807;-77
2021/12/25 07:27:40;;;;;;;10.27;7.77;;;;;;;7.64;100.00;153321.56;5032342;28;20446;-77
2021/12/25 07:30:16;;;;;;;8.60;7.10;;;;;;;7.66;100.00;153326.72;5047136;28;20990;-77
2021/12/25 07:32:51;;;;;;;7.53;6.73;;;;;;;7.68;100.00;153331.84;5031172;28;20440;-77
2021/12/25 07:35:28;;;;;;;8.07;7.30;;;;;;;7.71;100.00;153339.63;5050450;28;20459;-77
2021/12/25 07:38:04;;;;;;;8.17;6.63;;;;;;;7.71;100.00;153340.91;5067798;28;20443;-77
2021/12/25 07:40:40;;;;;;;9.20;7.57;;;;;;;7.78;100.00;153357.72;5015387;28;20477;-77
2021/12/25 07:43:17;;;;;;;8.03;6.17;;;;;;;7.81;100.00;153366.75;5033383;28;20454;-76
2021/12/25 07:46:13;;;;;;;8.17;6.13;;;;;;;7.85;100.00;153375.81;5066403;28;20443;-77
2021/12/25 07:48:48;;;;;;;6.73;5.27;;;;;;;7.86;100.00;153378.41;5034479;28;20459;-77
2021/12/25 07:51:25;;;;;;;5.67;5.10;;;;;;;7.92;100.00;153393.88;5018976;28;20974;-77
2021/12/25 07:54:01;;;;;;;5.00;3.87;;;;;;;7.93;100.00;153396.47;5033114;28;20550;-77
2021/12/25 07:56:36;;;;;;;6.80;4.60;;;;;;;7.96;100.00;153404.22;5032559;28;20474;-77
2021/12/25 07:59:13;;;;;;;6.17;5.13;;;;;;;7.95;100.00;153402.94;5049545;28;20455;-77
2021/12/25 08:01:49;;;;;;;5.27;4.70;;;;;;;7.98;100.00;153410.69;5052128;28;21004;-77
2021/12/25 08:04:25;;;;;;;6.77;4.50;;;;;;;8.01;100.00;153415.84;5065552;28;20626;-77
2021/12/25 08:07:02;;;;;;;5.73;4.70;;;;;;;8.03;100.00;153421.00;4999085;28;20769;-77
2021/12/25 08:09:38;;;;;;;5.37;4.60;;;;;;;8.04;100.00;153424.91;5001902;28;20779;-77
2021/12/25 08:12:14;;;;;;;5.97;5.23;;;;;;;8.06;100.00;153430.06;5044831;28;20452;-77
2021/12/25 08:14:49;;;;;;;5.73;4.57;;;;;;;8.06;100.00;153428.75;5010906;28;20460;-77
2021/12/25 08:17:25;;;;;;;5.23;4.60;;;;;;;8.08;100.00;153435.22;5049625;28;20459;-77
2021/12/25 08:20:19;;;;;;;6.60;5.40;;;;;;;8.07;100.00;153432.66;5013273;28;20445;-77
2021/12/25 08:23:15;;;;;;;8.10;5.10;;;;;;;8.08;100.00;153433.94;5060027;28;20475;-77
2021/12/25 08:26:10;;;;;;;5.60;5.00;;;;;;;8.09;100.00;153436.53;5063999;28;20530;-77
2021/12/25 08:29:04;;;;;;;6.13;4.70;;;;;;;8.13;100.00;153446.88;5055489;28;20436;-77
2021/12/25 08:31:59;;;;;;;7.97;6.13;;;;;;;8.10;100.00;153439.13;5045791;28;20469;-77
2021/12/25 08:34:53;;;;;;;7.10;6.40;;;;;;;8.08;100.00;153435.22;5059893;28;20451;-77
2021/12/25 08:37:34;;;;;;;7.60;6.07;;;;;;;8.08;100.00;153433.94;5023846;28;20447;-77
2021/12/25 08:40:12;;;;;;;7.50;6.53;;;;;;;8.08;100.00;153435.22;5023118;28;20447;-77
2021/12/25 08:42:52;;;;;;;6.40;4.97;;;;;;;8.09;100.00;153437.81;5031111;28;21137;-77
2021/12/25 08:45:41;;;;;;;7.57;6.30;;;;;;;8.11;100.00;153441.69;5063806;28;20896;-77
2021/12/25 08:48:19;;;;;;;6.83;5.50;;;;;;;8.15;100.00;153453.34;5032063;28;20443;-77
2021/12/25 08:50:57;;;;;;;6.30;5.50;;;;;;;8.14;100.00;153450.75;5065717;28;20898;-77
2021/12/25 08:53:32;;;;;;;6.50;5.90;;;;;;;8.14;100.00;153450.75;5064674;28;20804;-77
2021/12/25 08:56:09;;;;;;;6.40;5.47;;;;;;;8.18;100.00;153461.06;5030519;28;20486;-77
2021/12/25 08:58:45;;;;;;;8.40;6.63;;;;;;;8.18;100.00;153459.81;5032845;28;20931;-77
2021/12/25 09:01:20;;;;;;;9.20;5.90;;;;;;;8.20;100.00;153466.28;5016675;28;20438;-77
2021/12/25 09:03:56;;;;;;;7.10;5.70;;;;;;;8.20;100.00;153466.28;5016899;28;20942;-77
2021/12/25 09:06:33;;;;;;;6.60;5.70;;;;;;;8.21;100.00;153468.81;5016232;28;20794;-77
2021/12/25 09:09:09;;;;;;;6.77;5.90;;;;;;;8.22;100.00;153471.44;5028494;28;20449;-77
2021/12/25 09:11:46;;;;;;;9.83;7.80;;;;;;;8.23;100.00;153474.03;5061677;28;20463;-77
2021/12/25 09:14:22;;;;;;;7.73;6.50;;;;;;;8.24;100.00;153475.28;5059780;28;20455;-77
2021/12/25 09:16:57;;;;;;;8.70;6.40;;;;;;;8.26;100.00;153480.50;5050319;28;20447;-77
2021/12/25 09:19:33;;;;;;;7.63;6.00;;;;;;;8.26;100.00;153480.50;5065332;28;20447;-77
2021/12/25 09:22:10;;;;;;;13.70;7.50;;;;;;;8.26;100.00;153481.75;5031006;28;20431;-77
2021/12/25 09:24:45;;;;;;;6.20;5.60;;;;;;;8.28;100.00;153487.00;5064408;28;20778;-77
2021/12/25 09:27:22;;;;;;;7.90;7.10;;;;;;;8.30;100.00;153492.16;5063637;28;20440;-77
2021/12/25 09:29:58;;;;;;;7.07;6.10;;;;;;;8.32;100.00;153497.31;5028147;28;20926;-77
2021/12/25 09:32:34;;;;;;;8.10;7.27;;;;;;;8.32;100.00;153497.31;5047107;28;20802;-77
2021/12/25 09:35:10;;;;;;;7.27;6.10;;;;;;;8.32;100.00;153497.31;5063833;28;20448;-77
2021/12/25 09:37:46;;;;;;;7.10;6.27;;;;;;;8.32;100.00;153497.31;5030083;28;20439;-77
2021/12/25 09:40:21;;;;;;;9.10;7.40;;;;;;;8.32;100.00;153497.31;5030156;28;20937;-77
2021/12/25 09:42:58;;;;;;;9.83;7.63;;;;;;;8.35;100.00;153503.78;5058898;28;20439;-77
2021/12/25 09:45:34;;;;;;;9.47;7.40;;;;;;;8.37;100.00;153510.22;5046031;28;20791;-77
2021/12/25 09:48:10;;;;;;;6.10;5.17;;;;;;;8.40;100.00;153518.00;5029978;28;20946;-77
2021/12/25 09:50:45;;;;;;;10.93;7.37;;;;;;;8.43;100.00;153524.47;5016327;28;20842;-77
2021/12/25 09:53:21;;;;;;;7.60;5.53;;;;;;;8.43;100.00;153524.47;5000832;28;20444;-77
2021/12/25 09:55:57;;;;;;;7.30;6.13;;;;;;;8.46;100.00;153532.22;5059364;28;20435;-77
2021/12/25 09:58:34;;;;;;;7.33;6.57;;;;;;;8.48;100.00;153537.38;5018906;28;20447;-77
2021/12/25 10:01:09;;;;;;;7.20;6.20;;;;;;;8.51;100.00;153546.44;5033036;28;20763;-77
2021/12/25 10:03:46;;;;;;;7.73;5.50;;;;;;;8.50;100.00;153542.53;5013894;28;20448;-77
2021/12/25 10:06:29;;;;;;;8.47;5.40;;;;;;;8.52;100.00;153549.00;5030650;28;20813;-77
2021/12/25 10:09:18;;;;;;;8.03;5.60;;;;;;;8.53;100.00;153550.28;4983874;28;20456;-77
2021/12/25 10:11:59;;;;;;;6.97;5.87;;;;;;;8.56;100.00;153559.38;5052643;28;20472;-77
2021/12/25 10:14:36;;;;;;;6.70;4.67;;;;;;;8.57;100.00;153561.97;5025858;28;20459;-78
2021/12/25 10:17:17;;;;;;;9.17;5.70;;;;;;;8.57;100.00;153561.97;5008601;28;20477;-77
2021/12/25 10:20:11;;;;;;;7.63;5.83;;;;;;;8.57;100.00;153561.97;5010530;28;20471;-77
2021/12/25 10:23:05;;;;;;;4.80;3.80;;;;;;;8.61;100.00;153569.69;4999383;28;20463;-78
2021/12/25 10:25:45;;;;;;;4.70;3.50;;;;;;;8.62;100.00;153572.28;5048385;28;20448;-77
2021/12/25 10:28:23;;;;;;;4.70;4.10;;;;;;;8.64;100.00;153578.75;5010944;28;20460;-78
2021/12/25 10:31:02;;;;;;;5.10;2.60;;;;;;;8.67;100.00;153586.50;5042898;28;20469;-78
2021/12/25 10:33:41;;;;;;;3.07;2.77;;;;;;;8.69;100.00;153590.38;4983041;28;20526;-78
2021/12/25 10:36:25;;;;;;;3.27;2.80;;;;;;;8.72;100.00;153598.13;5028798;28;20479;-77
2021/12/25 10:39:03;;;;;;;3.40;2.70;;;;;;;8.70;100.00;153592.97;5045162;28;20452;-78
2021/12/25 10:41:41;;;;;;;2.67;2.20;;;;;;;8.74;100.00;153603.28;4998867;28;20610;-78
2021/12/25 10:44:18;;;;;;;4.20;2.30;;;;;;;8.77;100.00;153611.06;5028478;28;20809;-79
2021/12/25 10:46:56;;;;;;;2.40;1.90;;;;;;;8.78;100.00;153613.66;5056921;28;20547;-78
2021/12/25 10:49:34;;;;;;;3.03;1.80;;;;;;;8.81;100.00;153621.41;5014553;28;20439;-78
2021/12/25 10:52:13;;;;;;;4.00;1.70;;;;;;;8.80;100.00;153618.81;5030662;28;20471;-78
2021/12/25 10:54:50;;;;;;;1.60;1.10;;;;;;;8.84;100.00;153629.19;5041970;28;20546;-77
2021/12/25 10:57:38;;;;;;;1.90;1.30;;;;;;;8.87;100.00;153636.94;5023523;28;20476;-78
2021/12/25 11:00:15;;;;;;;1.53;1.30;;;;;;;8.88;100.00;153639.50;5029794;28;20472;-77
2021/12/25 11:02:57;;;;;;;1.97;1.27;;;;;;;8.90;100.00;153644.66;5043482;28;20448;-77
2021/12/25 11:05:35;;;;;;;2.23;1.53;;;;;;;8.94;100.00;153656.34;5041877;28;20440;-78
2021/12/25 11:08:12;;;;;;;2.73;1.53;;;;;;;8.99;100.00;153667.97;5044701;28;20440;-78
2021/12/25 11:10:50;;;;;;;1.40;1.20;;;;;;;9.07;100.00;153688.66;5044957;28;20452;-78
2021/12/25 11:13:28;;;;;;;3.20;1.53;;;;;;;9.16;100.00;153711.91;5030059;28;20463;-77
2021/12/25 11:16:21;;;;;;;2.70;1.53;;;;;;;9.24;100.00;153732.59;5029071;28;20447;-78
2021/12/25 11:19:05;;;;;;;2.67;1.47;;;;;;;9.25;100.00;153735.22;5037431;28;20447;-78
2021/12/25 11:21:57;;;;;;;2.00;1.40;;;;;;;9.28;100.00;153742.97;5057799;28;20523;-78
2021/12/25 11:24:37;;;;;;;2.07;1.30;;;;;;;9.34;100.00;153758.50;5028201;28;20448;-78
2021/12/25 11:27:14;;;;;;;2.27;1.57;;;;;;;9.37;100.00;153764.97;5028762;28;20800;-78
2021/12/25 11:29:50;;;;;;;2.50;1.60;;;;;;;9.39;100.00;153771.44;5062412;28;20436;-78
2021/12/25 11:32:26;;;;;;;3.87;1.50;;;;;;;9.44;100.00;153784.38;5018212;28;20483;-78
2021/12/25 11:35:03;;;;;;;1.50;1.20;;;;;;;9.47;100.00;153790.84;5041941;28;20448;-78
2021/12/25 11:37:39;;;;;;;2.03;1.57;;;;;;;9.51;100.00;153802.47;5061279;28;20483;-78
2021/12/25 11:40:16;;;;;;;2.83;1.90;;;;;;;9.51;100.00;153801.16;5046213;28;20440;-78
2021/12/25 11:42:54;;;;;;;1.70;1.27;;;;;;;9.48;100.00;153794.69;5028389;28;20447;-77
2021/12/25 11:45:33;;;;;;;2.20;1.53;;;;;;;9.45;100.00;153785.69;5012808;28;20807;-78
2021/12/25 11:48:15;;;;;;;2.20;1.40;;;;;;;9.43;100.00;153781.75;5026912;28;20800;-77
2021/12/25 11:50:53;;;;;;;1.80;0.93;;;;;;;9.42;100.00;153779.22;5034385;28;20443;-78
2021/12/25 11:53:45;;;;;;;1.80;1.10;;;;;;;9.40;100.00;153772.75;5046405;28;20432;-77
2021/12/25 11:56:34;;;;;;;1.60;1.50;;;;;;;9.42;100.00;153779.22;5026886;28;20554;-78
2021/12/25 11:59:11;;;;;;;2.53;1.40;;;;;;;9.42;100.00;153779.22;5062294;28;20435;-78
2021/12/25 12:01:48;;;;;;;1.60;1.13;;;;;;;9.42;100.00;153777.91;5028821;28;20535;-78
2021/12/25 12:04:25;;;;;;;1.63;1.27;;;;;;;9.43;100.00;153781.75;5027928;28;20443;-78
2021/12/25 12:07:12;;;;;;;1.23;1.03;;;;;;;9.45;100.00;153786.94;5027475;28;20447;-78
2021/12/25 12:10:07;;;;;;;2.03;1.30;;;;;;;9.45;100.00;153785.69;5044588;28;20792;-77
2021/12/25 12:12:42;;;;;;;2.20;1.10;;;;;;;9.44;100.00;153784.38;5047747;28;20464;-78
2021/12/25 12:15:58;;;;;;;2.70;1.43;;;;;;;9.43;100.00;153780.47;4988252;28;20446;-77
2021/12/25 12:18:53;;;;;;;1.40;1.03;;;;;;;9.44;100.00;153783.06;4989430;28;20787;-78
2021/12/25 12:21:38;;;;;;;2.00;1.10;;;;;;;9.44;100.00;153784.38;5007516;28;20455;-77
2021/12/25 12:24:39;;;;;;;1.70;0.97;;;;;;;9.44;100.00;153784.38;5030722;28;20432;-77
2021/12/25 12:27:35;;;;;;;1.33;0.77;;;;;;;9.46;100.00;153789.53;5063510;28;20435;-77
2021/12/25 12:30:13;;;;;;;1.87;1.20;;;;;;;9.43;100.00;153781.75;5039785;28;20449;-77
2021/12/25 12:32:48;;;;;;;1.20;0.80;;;;;;;9.43;100.00;153781.75;5043881;28;20841;-78
2021/12/25 12:35:32;;;;;;;1.33;0.77;;;;;;;9.44;100.00;153784.38;5016595;28;20939;-77
2021/12/25 12:38:27;;;;;;;1.50;1.10;;;;;;;9.44;100.00;153784.38;5030326;28;20449;-77
2021/12/25 12:41:16;;;;;;;1.47;1.03;;;;;;;9.40;100.00;153774.00;5023277;28;20922;-78
2021/12/25 12:44:07;;;;;;;1.53;1.20;;;;;;;9.38;100.00;153768.84;5062867;28;20844;-77
2021/12/25 12:47:01;;;;;;;1.70;1.20;;;;;;;9.34;100.00;153758.50;5028013;28;20472;-77
2021/12/25 12:49:57;;;;;;;1.97;1.20;;;;;;;9.33;100.00;153755.91;5041942;28;20468;-77
2021/12/25 12:52:37;;;;;;;1.37;1.00;;;;;;;9.30;100.00;153748.13;5016301;28;20475;-77
2021/12/25 12:55:26;;;;;;;1.50;1.07;;;;;;;9.30;100.00;153748.13;5048563;28;20810;-77
2021/12/25 12:58:13;;;;;;;1.50;1.10;;;;;;;9.30;100.00;153748.13;5065656;28;20471;-77
2021/12/25 13:00:53;;;;;;;2.10;1.30;;;;;;;9.27;100.00;153740.38;5065618;28;20459;-77
2021/12/25 13:03:30;;;;;;;1.37;1.20;;;;;;;9.28;100.00;153742.97;5031438;28;20444;-77
2021/12/25 13:06:11;;;;;;;1.77;1.20;;;;;;;9.29;100.00;153744.28;5046161;28;20483;-77
2021/12/25 13:08:48;;;;;;;1.60;1.37;;;;;;;9.27;100.00;153740.38;5027314;28;20447;-77
2021/12/25 13:11:26;;;;;;;1.97;1.30;;;;;;;9.28;100.00;153741.69;5041054;28;20943;-77
2021/12/25 13:14:05;;;;;;;2.00;1.40;;;;;;;9.26;100.00;153736.50;5013338;28;20432;-77
2021/12/25 13:16:43;;;;;;;1.60;1.37;;;;;;;9.23;100.00;153730.03;5036881;28;20472;-77
2021/12/25 13:19:23;;;;;;;2.37;1.67;;;;;;;9.25;100.00;153733.91;5037047;28;20451;-77
2021/12/25 13:21:58;;;;;;;1.90;1.37;;;;;;;9.23;100.00;153730.03;5013685;28;20439;-77
2021/12/25 13:24:34;;;;;;;1.80;1.27;;;;;;;9.26;100.00;153736.50;5027389;28;20494;-77